sensor_id;sensor_type;location;lat;lon;timestamp;P1;durP1;ratioP1;P2;durP2;ratioP2
32894;SDS011;19251;49.484;8.260;2022-09-29T00:03:04;3.00;;;1.73;;
32894;SDS011;19251;49.484;8.260;2022-09-29T00:08:07;6.65;;;1.50;;
32894;SDS011;19251;49.484;8.260;2022-09-29T00:13:09;6.68;;;2.60;;
32894;SDS011;19251;49.484;8.260;2022-09-29T00:18:11;3.63;;;1.83;;
32894;SDS011;19251;49.484;8.260;2022-09-29T00:23:15;5.10;;;2.30;;
32894;SDS011;19251;49.484;8.260;2022-09-29T00:28:17;3.60;;;1.47;;
32894;SDS011;19251;49.484;8.260;2022-09-29T00:33:19;6.43;;;2.13;;
32894;SDS011;19251;49.484;8.260;2022-09-29T00:38:21;2.20;;;1.63;;
32894;SDS011;19251;49.484;8.260;2022-09-29T00:43:44;3.60;;;1.63;;
32894;SDS011;19251;49.484;8.260;2022-09-29T00:48:50;1.70;;;1.20;;
32894;SDS011;19251;49.484;8.260;2022-09-29T00:58:56;6.55;;;2.00;;
32894;SDS011;19251;49.484;8.260;2022-09-29T01:04:10;3.27;;;2.17;;
32894;SDS011;19251;49.484;8.260;2022-09-29T01:09:18;1.90;;;1.70;;
32894;SDS011;19251;49.484;8.260;2022-09-29T01:14:24;8.67;;;2.00;;
32894;SDS011;19251;49.484;8.260;2022-09-29T01:35:13;5.90;;;2.15;;
32894;SDS011;19251;49.484;8.260;2022-09-29T01:40:18;9.20;;;4.00;;
32894;SDS011;19251;49.484;8.260;2022-09-29T01:45:42;10.05;;;4.15;;
32894;SDS011;19251;49.484;8.260;2022-09-29T01:50:51;8.30;;;3.45;;
32894;SDS011;19251;49.484;8.260;2022-09-29T01:55:57;4.15;;;3.35;;
32894;SDS011;19251;49.484;8.260;2022-09-29T02:01:05;4.10;;;3.50;;
32894;SDS011;19251;49.484;8.260;2022-09-29T02:06:11;4.03;;;3.63;;
32894;SDS011;19251;49.484;8.260;2022-09-29T02:11:20;3.50;;;3.15;;
32894;SDS011;19251;49.484;8.260;2022-09-29T02:16:23;4.43;;;4.00;;
32894;SDS011;19251;49.484;8.260;2022-09-29T02:21:30;3.55;;;3.25;;
32894;SDS011;19251;49.484;8.260;2022-09-29T02:26:33;4.60;;;3.97;;
32894;SDS011;19251;49.484;8.260;2022-09-29T02:31:36;5.30;;;4.68;;
32894;SDS011;19251;49.484;8.260;2022-09-29T02:36:41;5.70;;;5.05;;
32894;SDS011;19251;49.484;8.260;2022-09-29T02:42:06;6.20;;;5.30;;
32894;SDS011;19251;49.484;8.260;2022-09-29T02:52:25;13.43;;;4.97;;
32894;SDS011;19251;49.484;8.260;2022-09-29T03:03:12;8.75;;;5.45;;
32894;SDS011;19251;49.484;8.260;2022-09-29T03:08:14;8.73;;;5.85;;
32894;SDS011;19251;49.484;8.260;2022-09-29T03:13:17;7.05;;;6.25;;
32894;SDS011;19251;49.484;8.260;2022-09-29T03:18:19;7.77;;;6.07;;
32894;SDS011;19251;49.484;8.260;2022-09-29T03:23:23;8.65;;;6.70;;
32894;SDS011;19251;49.484;8.260;2022-09-29T03:28:25;7.57;;;6.60;;
32894;SDS011;19251;49.484;8.260;2022-09-29T03:33:27;6.43;;;5.60;;
32894;SDS011;19251;49.484;8.260;2022-09-29T03:38:29;11.27;;;5.33;;
32894;SDS011;19251;49.484;8.260;2022-09-29T03:43:32;8.75;;;6.10;;
32894;SDS011;19251;49.484;8.260;2022-09-29T03:48:34;9.57;;;6.80;;
32894;SDS011;19251;49.484;8.260;2022-09-29T03:53:36;18.50;;;5.70;;
32894;SDS011;19251;49.484;8.260;2022-09-29T03:58:38;8.45;;;6.62;;
32894;SDS011;19251;49.484;8.260;2022-09-29T04:03:40;6.17;;;5.57;;
32894;SDS011;19251;49.484;8.260;2022-09-29T04:08:42;8.13;;;6.40;;
32894;SDS011;19251;49.484;8.260;2022-09-29T04:13:44;6.10;;;5.03;;
32894;SDS011;19251;49.484;8.260;2022-09-29T04:18:47;5.62;;;4.93;;
32894;SDS011;19251;49.484;8.260;2022-09-29T04:23:49;6.40;;;5.70;;
32894;SDS011;19251;49.484;8.260;2022-09-29T04:28:51;8.53;;;5.00;;
32894;SDS011;19251;49.484;8.260;2022-09-29T04:33:53;15.83;;;8.17;;
32894;SDS011;19251;49.484;8.260;2022-09-29T04:38:55;12.17;;;6.30;;
32894;SDS011;19251;49.484;8.260;2022-09-29T04:43:57;8.80;;;5.60;;
32894;SDS011;19251;49.484;8.260;2022-09-29T04:48:59;8.57;;;6.63;;
32894;SDS011;19251;49.484;8.260;2022-09-29T04:54:01;9.43;;;6.47;;
32894;SDS011;19251;49.484;8.260;2022-09-29T04:59:03;9.35;;;6.20;;
32894;SDS011;19251;49.484;8.260;2022-09-29T05:04:07;13.85;;;7.03;;
32894;SDS011;19251;49.484;8.260;2022-09-29T05:09:10;5.90;;;5.03;;
32894;SDS011;19251;49.484;8.260;2022-09-29T05:14:13;8.13;;;6.03;;
32894;SDS011;19251;49.484;8.260;2022-09-29T05:19:15;9.10;;;5.18;;
32894;SDS011;19251;49.484;8.260;2022-09-29T05:24:17;6.07;;;5.47;;
32894;SDS011;19251;49.484;8.260;2022-09-29T05:29:19;7.13;;;6.43;;
32894;SDS011;19251;49.484;8.260;2022-09-29T05:34:21;4.72;;;3.80;;
32894;SDS011;19251;49.484;8.260;2022-09-29T05:39:23;5.90;;;4.63;;
32894;SDS011;19251;49.484;8.260;2022-09-29T05:44:25;5.23;;;4.73;;
32894;SDS011;19251;49.484;8.260;2022-09-29T05:49:28;7.22;;;5.40;;
32894;SDS011;19251;49.484;8.260;2022-09-29T05:54:32;5.85;;;4.50;;
32894;SDS011;19251;49.484;8.260;2022-09-29T05:59:34;12.43;;;5.53;;
32894;SDS011;19251;49.484;8.260;2022-09-29T06:04:36;6.13;;;5.27;;
32894;SDS011;19251;49.484;8.260;2022-09-29T06:09:41;5.50;;;4.90;;
32894;SDS011;19251;49.484;8.260;2022-09-29T06:14:44;11.90;;;5.47;;
32894;SDS011;19251;49.484;8.260;2022-09-29T06:19:46;10.43;;;6.17;;
32894;SDS011;19251;49.484;8.260;2022-09-29T06:24:48;6.23;;;5.43;;
32894;SDS011;19251;49.484;8.260;2022-09-29T06:29:50;12.43;;;6.07;;
32894;SDS011;19251;49.484;8.260;2022-09-29T06:34:52;14.40;;;4.90;;
32894;SDS011;19251;49.484;8.260;2022-09-29T06:40:13;9.17;;;5.40;;
32894;SDS011;19251;49.484;8.260;2022-09-29T06:45:15;9.93;;;5.40;;
32894;SDS011;19251;49.484;8.260;2022-09-29T06:50:22;7.27;;;5.23;;
32894;SDS011;19251;49.484;8.260;2022-09-29T06:55:25;7.60;;;5.93;;
32894;SDS011;19251;49.484;8.260;2022-09-29T07:00:28;10.85;;;5.78;;
32894;SDS011;19251;49.484;8.260;2022-09-29T07:05:30;8.73;;;6.43;;
32894;SDS011;19251;49.484;8.260;2022-09-29T07:10:33;7.53;;;5.70;;
32894;SDS011;19251;49.484;8.260;2022-09-29T07:15:35;12.00;;;5.57;;
32894;SDS011;19251;49.484;8.260;2022-09-29T07:20:38;6.97;;;5.05;;
32894;SDS011;19251;49.484;8.260;2022-09-29T07:25:41;7.60;;;5.68;;
32894;SDS011;19251;49.484;8.260;2022-09-29T07:30:59;7.07;;;6.10;;
32894;SDS011;19251;49.484;8.260;2022-09-29T07:36:16;8.00;;;5.07;;
32894;SDS011;19251;49.484;8.260;2022-09-29T07:41:20;8.47;;;5.27;;
32894;SDS011;19251;49.484;8.260;2022-09-29T07:46:23;7.63;;;5.33;;
32894;SDS011;19251;49.484;8.260;2022-09-29T07:51:25;7.80;;;6.30;;
32894;SDS011;19251;49.484;8.260;2022-09-29T07:56:27;6.13;;;4.80;;
32894;SDS011;19251;49.484;8.260;2022-09-29T08:01:29;6.07;;;5.43;;
32894;SDS011;19251;49.484;8.260;2022-09-29T08:06:32;5.60;;;4.78;;
32894;SDS011;19251;49.484;8.260;2022-09-29T08:11:38;6.12;;;5.35;;
32894;SDS011;19251;49.484;8.260;2022-09-29T08:16:42;6.97;;;5.93;;
32894;SDS011;19251;49.484;8.260;2022-09-29T08:21:44;6.87;;;5.50;;
32894;SDS011;19251;49.484;8.260;2022-09-29T08:26:50;7.37;;;5.53;;
32894;SDS011;19251;49.484;8.260;2022-09-29T08:31:52;8.43;;;5.50;;
32894;SDS011;19251;49.484;8.260;2022-09-29T08:36:57;10.65;;;5.80;;
32894;SDS011;19251;49.484;8.260;2022-09-29T08:42:10;8.50;;;6.33;;
32894;SDS011;19251;49.484;8.260;2022-09-29T08:47:28;5.78;;;4.65;;
32894;SDS011;19251;49.484;8.260;2022-09-29T08:52:47;10.18;;;5.87;;
32894;SDS011;19251;49.484;8.260;2022-09-29T08:57:58;8.18;;;5.60;;
32894;SDS011;19251;49.484;8.260;2022-09-29T09:19:30;7.75;;;5.47;;
32894;SDS011;19251;49.484;8.260;2022-09-29T09:24:46;12.85;;;8.35;;
32894;SDS011;19251;49.484;8.260;2022-09-29T09:30:14;11.70;;;7.50;;
32894;SDS011;19251;49.484;8.260;2022-09-29T09:35:24;11.18;;;6.93;;
32894;SDS011;19251;49.484;8.260;2022-09-29T09:40:55;7.68;;;6.47;;
32894;SDS011;19251;49.484;8.260;2022-09-29T09:46:01;13.88;;;6.87;;
32894;SDS011;19251;49.484;8.260;2022-09-29T09:56:56;8.43;;;6.87;;
32894;SDS011;19251;49.484;8.260;2022-09-29T10:02:16;8.13;;;6.10;;
32894;SDS011;19251;49.484;8.260;2022-09-29T10:07:23;8.45;;;6.90;;
32894;SDS011;19251;49.484;8.260;2022-09-29T10:12:28;10.02;;;7.70;;
32894;SDS011;19251;49.484;8.260;2022-09-29T10:17:41;9.70;;;7.37;;
32894;SDS011;19251;49.484;8.260;2022-09-29T10:22:47;12.15;;;5.85;;
32894;SDS011;19251;49.484;8.260;2022-09-29T10:27:52;10.63;;;6.82;;
32894;SDS011;19251;49.484;8.260;2022-09-29T10:32:58;9.85;;;5.60;;
32894;SDS011;19251;49.484;8.260;2022-09-29T10:38:07;7.78;;;6.00;;
32894;SDS011;19251;49.484;8.260;2022-09-29T10:43:22;12.18;;;7.12;;
32894;SDS011;19251;49.484;8.260;2022-09-29T10:48:32;10.95;;;6.60;;
32894;SDS011;19251;49.484;8.260;2022-09-29T10:53:38;7.33;;;5.87;;
32894;SDS011;19251;49.484;8.260;2022-09-29T10:58:44;10.15;;;6.75;;
32894;SDS011;19251;49.484;8.260;2022-09-29T11:04:03;11.80;;;6.93;;
32894;SDS011;19251;49.484;8.260;2022-09-29T11:19:44;13.95;;;8.35;;
32894;SDS011;19251;49.484;8.260;2022-09-29T11:24:50;7.28;;;5.28;;
32894;SDS011;19251;49.484;8.260;2022-09-29T11:57:39;7.65;;;5.10;;
32894;SDS011;19251;49.484;8.260;2022-09-29T12:08:21;6.00;;;4.93;;
32894;SDS011;19251;49.484;8.260;2022-09-29T12:13:47;7.30;;;5.28;;
32894;SDS011;19251;49.484;8.260;2022-09-29T12:19:16;8.40;;;5.20;;
32894;SDS011;19251;49.484;8.260;2022-09-29T12:24:45;9.07;;;5.65;;
32894;SDS011;19251;49.484;8.260;2022-09-29T12:29:49;7.35;;;4.75;;
32894;SDS011;19251;49.484;8.260;2022-09-29T12:34:58;7.37;;;4.62;;
32894;SDS011;19251;49.484;8.260;2022-09-29T12:40:18;9.82;;;5.43;;
32894;SDS011;19251;49.484;8.260;2022-09-29T12:45:30;5.47;;;4.35;;
32894;SDS011;19251;49.484;8.260;2022-09-29T12:50:56;10.95;;;4.43;;
32894;SDS011;19251;49.484;8.260;2022-09-29T12:56:23;11.18;;;4.82;;
32894;SDS011;19251;49.484;8.260;2022-09-29T13:01:32;4.97;;;3.97;;
32894;SDS011;19251;49.484;8.260;2022-09-29T13:27:56;4.55;;;3.03;;
32894;SDS011;19251;49.484;8.260;2022-09-29T13:33:02;7.60;;;3.08;;
32894;SDS011;19251;49.484;8.260;2022-09-29T13:38:20;3.95;;;2.35;;
32894;SDS011;19251;49.484;8.260;2022-09-29T13:43:38;15.25;;;3.33;;
32894;SDS011;19251;49.484;8.260;2022-09-29T13:48:50;10.73;;;3.28;;
32894;SDS011;19251;49.484;8.260;2022-09-29T13:54:17;4.78;;;2.85;;
32894;SDS011;19251;49.484;8.260;2022-09-29T13:59:44;8.57;;;3.83;;
32894;SDS011;19251;49.484;8.260;2022-09-29T14:15:38;9.85;;;3.65;;
32894;SDS011;19251;49.484;8.260;2022-09-29T14:21:08;4.22;;;2.97;;
32894;SDS011;19251;49.484;8.260;2022-09-29T14:31:50;7.90;;;2.60;;
32894;SDS011;19251;49.484;8.260;2022-09-29T14:36:56;6.32;;;2.35;;
32894;SDS011;19251;49.484;8.260;2022-09-29T14:42:00;4.03;;;2.72;;
32894;SDS011;19251;49.484;8.260;2022-09-29T15:03:25;5.78;;;2.12;;
32894;SDS011;19251;49.484;8.260;2022-09-29T15:08:31;6.12;;;2.10;;
32894;SDS011;19251;49.484;8.260;2022-09-29T15:13:34;4.68;;;2.17;;
32894;SDS011;19251;49.484;8.260;2022-09-29T15:24:04;4.78;;;2.17;;
32894;SDS011;19251;49.484;8.260;2022-09-29T15:29:26;4.05;;;1.98;;
32894;SDS011;19251;49.484;8.260;2022-09-29T15:34:29;3.08;;;2.30;;
32894;SDS011;19251;49.484;8.260;2022-09-29T15:44:39;3.78;;;2.37;;
32894;SDS011;19251;49.484;8.260;2022-09-29T15:50:04;13.32;;;2.87;;
32894;SDS011;19251;49.484;8.260;2022-09-29T15:55:24;3.15;;;1.90;;
32894;SDS011;19251;49.484;8.260;2022-09-29T16:05:38;3.17;;;2.13;;
32894;SDS011;19251;49.484;8.260;2022-09-29T16:10:50;4.03;;;1.70;;
32894;SDS011;19251;49.484;8.260;2022-09-29T16:15:56;6.03;;;2.47;;
32894;SDS011;19251;49.484;8.260;2022-09-29T16:21:06;4.28;;;2.25;;
32894;SDS011;19251;49.484;8.260;2022-09-29T16:26:16;11.15;;;3.90;;
32894;SDS011;19251;49.484;8.260;2022-09-29T16:31:20;4.90;;;2.28;;
32894;SDS011;19251;49.484;8.260;2022-09-29T16:36:33;3.37;;;2.05;;
32894;SDS011;19251;49.484;8.260;2022-09-29T16:41:40;7.97;;;0.98;;
32894;SDS011;19251;49.484;8.260;2022-09-29T16:46:53;2.42;;;1.12;;
32894;SDS011;19251;49.484;8.260;2022-09-29T16:52:00;1.95;;;0.90;;
32894;SDS011;19251;49.484;8.260;2022-09-29T16:57:17;3.03;;;0.98;;
32894;SDS011;19251;49.484;8.260;2022-09-29T17:02:26;2.05;;;0.75;;
32894;SDS011;19251;49.484;8.260;2022-09-29T17:12:31;1.85;;;0.75;;
32894;SDS011;19251;49.484;8.260;2022-09-29T17:17:34;1.20;;;0.80;;
32894;SDS011;19251;49.484;8.260;2022-09-29T17:22:36;2.12;;;1.00;;
32894;SDS011;19251;49.484;8.260;2022-09-29T17:27:38;4.55;;;1.08;;
32894;SDS011;19251;49.484;8.260;2022-09-29T17:33:02;3.60;;;0.95;;
32894;SDS011;19251;49.484;8.260;2022-09-29T17:38:05;2.17;;;1.10;;
32894;SDS011;19251;49.484;8.260;2022-09-29T17:43:11;0.60;;;0.60;;
32894;SDS011;19251;49.484;8.260;2022-09-29T17:48:13;4.83;;;1.17;;
32894;SDS011;19251;49.484;8.260;2022-09-29T17:53:16;3.97;;;1.15;;
32894;SDS011;19251;49.484;8.260;2022-09-29T17:58:19;1.03;;;0.60;;
32894;SDS011;19251;49.484;8.260;2022-09-29T18:03:23;4.43;;;1.00;;
32894;SDS011;19251;49.484;8.260;2022-09-29T18:08:26;1.42;;;0.98;;
32894;SDS011;19251;49.484;8.260;2022-09-29T18:13:30;1.50;;;1.25;;
32894;SDS011;19251;49.484;8.260;2022-09-29T18:18:32;1.58;;;0.90;;
32894;SDS011;19251;49.484;8.260;2022-09-29T18:23:35;10.18;;;1.23;;
32894;SDS011;19251;49.484;8.260;2022-09-29T18:28:37;3.22;;;1.37;;
32894;SDS011;19251;49.484;8.260;2022-09-29T18:33:39;2.87;;;1.50;;
32894;SDS011;19251;49.484;8.260;2022-09-29T18:38:42;2.08;;;1.87;;
32894;SDS011;19251;49.484;8.260;2022-09-29T18:43:45;7.00;;;2.80;;
32894;SDS011;19251;49.484;8.260;2022-09-29T18:48:48;3.30;;;1.97;;
32894;SDS011;19251;49.484;8.260;2022-09-29T18:53:50;4.90;;;1.70;;
32894;SDS011;19251;49.484;8.260;2022-09-29T18:58:52;2.83;;;2.35;;
32894;SDS011;19251;49.484;8.260;2022-09-29T19:03:54;3.92;;;1.92;;
32894;SDS011;19251;49.484;8.260;2022-09-29T19:08:57;5.35;;;2.30;;
32894;SDS011;19251;49.484;8.260;2022-09-29T19:13:59;7.00;;;2.40;;
32894;SDS011;19251;49.484;8.260;2022-09-29T19:19:02;2.77;;;2.00;;
32894;SDS011;19251;49.484;8.260;2022-09-29T19:24:05;3.10;;;2.25;;
32894;SDS011;19251;49.484;8.260;2022-09-29T19:29:07;2.57;;;1.70;;
32894;SDS011;19251;49.484;8.260;2022-09-29T19:34:09;1.27;;;1.00;;
32894;SDS011;19251;49.484;8.260;2022-09-29T19:39:12;3.23;;;1.87;;
32894;SDS011;19251;49.484;8.260;2022-09-29T19:49:17;5.40;;;1.53;;
32894;SDS011;19251;49.484;8.260;2022-09-29T19:54:19;3.73;;;1.73;;
32894;SDS011;19251;49.484;8.260;2022-09-29T19:59:23;1.47;;;1.00;;
32894;SDS011;19251;49.484;8.260;2022-09-29T20:04:30;1.93;;;1.23;;
32894;SDS011;19251;49.484;8.260;2022-09-29T20:09:33;2.00;;;0.97;;
32894;SDS011;19251;49.484;8.260;2022-09-29T20:14:36;1.08;;;1.00;;
32894;SDS011;19251;49.484;8.260;2022-09-29T20:19:39;2.00;;;1.10;;
32894;SDS011;19251;49.484;8.260;2022-09-29T20:24:42;5.78;;;1.55;;
32894;SDS011;19251;49.484;8.260;2022-09-29T20:29:44;2.42;;;1.40;;
32894;SDS011;19251;49.484;8.260;2022-09-29T20:34:48;2.20;;;1.73;;
32894;SDS011;19251;49.484;8.260;2022-09-29T20:39:51;3.50;;;2.37;;
32894;SDS011;19251;49.484;8.260;2022-09-29T20:44:53;2.92;;;1.77;;
32894;SDS011;19251;49.484;8.260;2022-09-29T20:49:57;1.77;;;1.30;;
32894;SDS011;19251;49.484;8.260;2022-09-29T20:54:59;6.83;;;2.10;;
32894;SDS011;19251;49.484;8.260;2022-09-29T21:00:03;2.83;;;1.97;;
32894;SDS011;19251;49.484;8.260;2022-09-29T21:05:06;4.63;;;1.87;;
32894;SDS011;19251;49.484;8.260;2022-09-29T21:10:09;3.97;;;1.52;;
32894;SDS011;19251;49.484;8.260;2022-09-29T21:15:11;5.20;;;1.20;;
32894;SDS011;19251;49.484;8.260;2022-09-29T21:20:14;3.75;;;1.80;;
32894;SDS011;19251;49.484;8.260;2022-09-29T21:25:17;3.80;;;1.70;;
32894;SDS011;19251;49.484;8.260;2022-09-29T21:30:19;5.03;;;1.67;;
32894;SDS011;19251;49.484;8.260;2022-09-29T21:35:21;1.60;;;1.17;;
32894;SDS011;19251;49.484;8.260;2022-09-29T21:40:24;6.73;;;2.47;;
32894;SDS011;19251;49.484;8.260;2022-09-29T21:45:26;2.93;;;1.47;;
32894;SDS011;19251;49.484;8.260;2022-09-29T21:50:28;4.67;;;1.80;;
32894;SDS011;19251;49.484;8.260;2022-09-29T21:55:30;2.10;;;1.77;;
32894;SDS011;19251;49.484;8.260;2022-09-29T22:00:32;3.60;;;1.90;;
32894;SDS011;19251;49.484;8.260;2022-09-29T22:05:39;1.85;;;1.30;;
32894;SDS011;19251;49.484;8.260;2022-09-29T22:10:42;3.23;;;1.60;;
32894;SDS011;19251;49.484;8.260;2022-09-29T22:15:48;4.30;;;1.80;;
32894;SDS011;19251;49.484;8.260;2022-09-29T22:20:50;3.60;;;1.40;;
32894;SDS011;19251;49.484;8.260;2022-09-29T22:25:52;2.00;;;1.70;;
32894;SDS011;19251;49.484;8.260;2022-09-29T22:31:00;3.27;;;1.70;;
32894;SDS011;19251;49.484;8.260;2022-09-29T22:36:10;2.00;;;1.50;;
32894;SDS011;19251;49.484;8.260;2022-09-29T22:41:14;9.18;;;1.90;;
32894;SDS011;19251;49.484;8.260;2022-09-29T22:46:18;9.87;;;1.47;;
32894;SDS011;19251;49.484;8.260;2022-09-29T22:51:22;3.10;;;1.50;;
32894;SDS011;19251;49.484;8.260;2022-09-29T22:56:24;2.83;;;1.40;;
32894;SDS011;19251;49.484;8.260;2022-09-29T23:01:29;12.90;;;1.80;;
32894;SDS011;19251;49.484;8.260;2022-09-29T23:06:34;3.50;;;2.00;;
32894;SDS011;19251;49.484;8.260;2022-09-29T23:11:36;2.87;;;1.57;;
32894;SDS011;19251;49.484;8.260;2022-09-29T23:16:38;5.68;;;1.42;;
32894;SDS011;19251;49.484;8.260;2022-09-29T23:21:41;2.15;;;1.48;;
32894;SDS011;19251;49.484;8.260;2022-09-29T23:26:43;10.77;;;1.50;;
32894;SDS011;19251;49.484;8.260;2022-09-29T23:31:47;2.85;;;1.80;;
32894;SDS011;19251;49.484;8.260;2022-09-29T23:36:51;1.53;;;1.00;;
32894;SDS011;19251;49.484;8.260;2022-09-29T23:41:53;1.83;;;1.25;;
32894;SDS011;19251;49.484;8.260;2022-09-29T23:46:55;1.90;;;1.40;;
32894;SDS011;19251;49.484;8.260;2022-09-29T23:51:59;8.43;;;1.60;;
32894;SDS011;19251;49.484;8.260;2022-09-29T23:57:02;2.00;;;1.40;;
